createdAt,value
2023-01-25T05:01:24.565Z,18.55
2023-01-25T05:03:53.243Z,15.95
2023-01-25T05:06:37.551Z,16.17
2023-01-25T05:09:04.406Z,18.27
2023-01-25T05:11:34.214Z,17.45
2023-01-25T05:14:11.232Z,16.58
2023-01-25T05:16:38.282Z,18.33
2023-01-25T05:19:13.257Z,16.25
2023-01-25T05:22:00.947Z,17.40
2023-01-25T05:24:37.164Z,18.25
2023-01-25T05:27:08.224Z,15.75
2023-01-25T05:29:53.389Z,15.82
2023-01-25T05:32:24.228Z,14.95
2023-01-25T05:34:51.507Z,16.00
2023-01-25T05:37:21.314Z,14.70
2023-01-25T05:39:54.804Z,15.20
2023-01-25T05:42:21.853Z,15.73
2023-01-25T05:44:48.765Z,15.30
2023-01-25T05:47:21.437Z,16.42
2023-01-25T05:49:48.669Z,13.70
2023-01-25T05:52:22.715Z,16.70
2023-01-25T05:54:49.999Z,13.90
2023-01-25T05:57:17.947Z,16.67
2023-01-25T05:59:47.843Z,17.52
2023-01-25T06:02:19.096Z,15.88
2023-01-25T06:04:46.407Z,16.63
2023-01-25T06:07:13.912Z,17.35
2023-01-25T06:09:41.379Z,16.38
2023-01-25T06:12:08.390Z,16.50
2023-01-25T06:14:37.366Z,13.57
2023-01-25T06:17:04.245Z,16.77
2023-01-25T06:19:50.072Z,17.67
2023-01-25T06:22:23.437Z,14.50
2023-01-25T06:24:50.212Z,15.73
2023-01-25T06:27:17.029Z,14.55
2023-01-25T06:29:43.774Z,14.77
2023-01-25T06:32:10.931Z,16.38
2023-01-25T06:34:38.055Z,15.70
2023-01-25T06:37:05.157Z,18.75
2023-01-25T06:39:31.906Z,16.52
2023-01-25T06:41:59.222Z,15.13
2023-01-25T06:44:26.140Z,15.70
2023-01-25T06:46:52.984Z,16.33
2023-01-25T06:49:20.080Z,14.77
2023-01-25T06:51:46.850Z,15.35
2023-01-25T06:54:14.848Z,16.35
2023-01-25T06:56:41.952Z,15.75
2023-01-25T06:59:10.014Z,16.48
2023-01-25T07:01:37.708Z,17.17
2023-01-25T07:04:05.724Z,14.82
2023-01-25T07:06:34.263Z,14.73
2023-01-25T07:09:09.816Z,14.15
2023-01-25T07:11:37.442Z,13.75
2023-01-25T07:14:04.951Z,16.45
2023-01-25T07:16:38.681Z,15.05
2023-01-25T07:19:11.599Z,14.80
2023-01-25T07:21:38.420Z,14.57
2023-01-25T07:24:06.912Z,15.35
2023-01-25T07:26:34.119Z,13.93
2023-01-25T07:29:01.981Z,17.25
2023-01-25T07:31:29.349Z,19.27
2023-01-25T07:33:57.866Z,19.48
2023-01-25T07:36:25.249Z,14.52
2023-01-25T07:38:56.176Z,13.35
2023-01-25T07:41:26.341Z,17.13
2023-01-25T07:46:35.071Z,17.63
2023-01-25T07:49:01.937Z,15.52
2023-01-25T07:51:31.651Z,16.98
2023-01-25T07:54:04.717Z,15.98
2023-01-25T07:56:34.020Z,19.70
2023-01-25T07:59:03.089Z,20.63
2023-01-25T08:01:35.226Z,15.30
2023-01-25T08:04:03.099Z,17.55
2023-01-25T08:06:35.485Z,17.65
2023-01-25T08:09:04.945Z,16.67
2023-01-25T08:11:32.853Z,18.42
2023-01-25T08:14:01.951Z,19.27
2023-01-25T08:16:30.207Z,20.67
2023-01-25T08:18:59.303Z,18.60
2023-01-25T08:21:30.165Z,18.30
2023-01-25T08:23:58.915Z,19.13
2023-01-25T08:26:26.368Z,15.98
2023-01-25T08:28:54.240Z,17.98
2023-01-25T08:31:26.906Z,19.35
2023-01-25T08:33:54.386Z,18.90
2023-01-25T08:36:24.157Z,15.52
2023-01-25T08:38:55.113Z,19.58
2023-01-25T08:41:22.092Z,20.20
2023-01-25T08:43:49.021Z,19.13
2023-01-25T08:46:18.194Z,20.27
2023-01-25T08:48:45.205Z,18.58
2023-01-25T08:51:13.612Z,21.45
2023-01-25T08:53:41.537Z,20.95
2023-01-25T08:56:13.956Z,18.35
2023-01-25T08:58:42.984Z,20.48
2023-01-25T09:01:11.289Z,22.25
2023-01-25T09:03:40.405Z,19.85
2023-01-25T09:06:08.260Z,20.43
2023-01-25T09:08:36.089Z,20.73
2023-01-25T09:11:04.535Z,19.70
2023-01-25T09:13:31.589Z,18.60
2023-01-25T09:16:05.370Z,19.77
2023-01-25T09:18:35.164Z,20.05
2023-01-25T09:21:10.633Z,18.13
2023-01-25T09:23:50.509Z,19.05
2023-01-25T09:26:19.258Z,21.30
2023-01-25T09:28:51.062Z,19.05
2023-01-25T09:31:22.069Z,18.58
2023-01-25T09:34:22.704Z,19.95
2023-01-25T09:36:49.981Z,18.45
2023-01-25T09:39:16.886Z,19.25
2023-01-25T09:42:14.055Z,19.60
2023-01-25T09:44:55.716Z,19.58
2023-01-25T09:47:55.967Z,17.25
2023-01-25T09:50:34.392Z,20.20
2023-01-25T09:53:16.277Z,22.67
2023-01-25T09:55:43.400Z,21.63
2023-01-25T09:58:14.870Z,20.83
2023-01-25T10:00:45.267Z,21.52
2023-01-25T10:03:27.913Z,21.83
2023-01-25T10:05:58.241Z,19.38
2023-01-25T10:08:32.929Z,19.00
2023-01-25T10:11:26.589Z,17.23
2023-01-25T10:13:56.421Z,20.10
2023-01-25T10:16:39.419Z,20.70
2023-01-25T10:19:39.566Z,21.08
2023-01-25T10:22:22.148Z,20.63
2023-01-25T10:25:06.356Z,20.08
2023-01-25T10:27:55.162Z,17.70
2023-01-25T10:30:25.442Z,19.83
2023-01-25T10:32:56.115Z,21.38
2023-01-25T10:35:35.227Z,21.42
2023-01-25T10:38:22.138Z,23.60
2023-01-25T10:41:16.093Z,18.52
2023-01-25T10:43:43.334Z,19.27
2023-01-25T10:46:22.316Z,17.75
2023-01-25T10:48:49.328Z,21.33
2023-01-25T10:51:33.728Z,21.77
2023-01-25T10:54:11.782Z,18.35
2023-01-25T10:56:40.081Z,21.13
2023-01-25T10:59:25.004Z,19.00
2023-01-25T11:01:52.527Z,18.38
2023-01-25T11:04:38.313Z,17.00
2023-01-25T11:07:06.235Z,15.52
2023-01-25T11:09:38.874Z,23.75
2023-01-25T11:12:11.583Z,14.65
2023-01-25T11:14:39.376Z,16.02
2023-01-25T11:17:07.239Z,14.98
2023-01-25T11:19:39.796Z,16.35
2023-01-25T11:22:20.629Z,16.83
2023-01-25T11:24:47.619Z,17.08
2023-01-25T11:27:23.614Z,16.48
2023-01-25T11:30:05.931Z,17.42
2023-01-25T11:32:32.990Z,18.02
2023-01-25T11:35:00.505Z,21.30
2023-01-25T11:37:46.129Z,19.05
2023-01-25T11:40:34.391Z,21.98
2023-01-25T11:43:39.459Z,16.45
2023-01-25T11:46:32.279Z,18.13
2023-01-25T11:49:27.351Z,21.23
2023-01-25T11:52:02.427Z,18.58
2023-01-25T11:54:52.539Z,20.88
2023-01-25T11:57:34.957Z,19.10
2023-01-25T12:00:11.209Z,18.98
2023-01-25T12:03:25.937Z,16.65
2023-01-25T12:06:07.087Z,16.70
2023-01-25T12:08:43.949Z,20.33
2023-01-25T12:11:36.590Z,17.80
2023-01-25T12:14:18.565Z,20.27
2023-01-25T12:17:03.589Z,18.63
2023-01-25T12:20:07.237Z,17.60
2023-01-25T12:22:46.462Z,19.58
2023-01-25T12:25:40.169Z,18.90
2023-01-25T12:28:25.248Z,19.52
2023-01-25T12:31:21.865Z,20.00
2023-01-25T12:34:08.327Z,20.48
2023-01-25T12:36:45.139Z,18.77
2023-01-25T12:39:24.794Z,21.25
2023-01-25T12:42:05.239Z,23.65
2023-01-25T12:44:37.654Z,24.63
2023-01-25T12:47:11.007Z,26.02
2023-01-25T12:49:47.768Z,21.98
2023-01-25T12:52:24.628Z,20.92
2023-01-25T12:54:54.817Z,20.50
2023-01-25T12:57:50.571Z,23.83
2023-01-25T13:00:33.767Z,28.75
2023-01-25T13:03:09.617Z,21.38
2023-01-25T13:05:48.367Z,21.70
2023-01-25T13:08:43.056Z,21.77
2023-01-25T13:11:19.554Z,25.35
2023-01-25T13:13:47.159Z,21.05
2023-01-25T13:16:36.685Z,21.27
2023-01-25T13:19:03.883Z,22.08
2023-01-25T13:21:48.028Z,22.67
2023-01-25T13:24:18.170Z,17.75
2023-01-25T13:29:48.033Z,20.23
2023-01-25T13:32:33.387Z,17.52
2023-01-25T13:35:01.457Z,17.63
2023-01-25T13:37:42.476Z,18.30
2023-01-25T13:40:32.743Z,19.55
2023-01-25T13:45:28.396Z,16.38
2023-01-25T13:48:11.683Z,17.00
2023-01-25T13:50:44.295Z,21.00
2023-01-25T13:53:17.283Z,17.05
2023-01-25T13:55:56.518Z,18.42
2023-01-25T13:58:31.602Z,17.77
2023-01-25T14:01:19.084Z,17.67
2023-01-25T14:03:59.487Z,17.98
2023-01-25T14:06:33.472Z,19.13
2023-01-25T14:09:07.828Z,15.63
2023-01-25T14:11:37.297Z,20.50
2023-01-25T14:14:21.622Z,17.63
2023-01-25T14:17:22.098Z,18.08
2023-01-25T14:19:53.878Z,20.48
2023-01-25T14:22:26.443Z,16.95
2023-01-25T14:25:15.396Z,20.35
2023-01-25T14:28:02.633Z,20.50
2023-01-25T14:30:34.489Z,21.45
2023-01-25T14:33:33.839Z,20.02
2023-01-25T14:36:16.465Z,18.98
2023-01-25T14:38:51.414Z,20.23
2023-01-25T14:41:34.598Z,19.17
2023-01-25T14:44:07.135Z,18.52
2023-01-25T14:46:38.456Z,22.90
2023-01-25T14:49:26.594Z,18.13
2023-01-25T14:52:07.866Z,19.85
2023-01-25T14:54:44.282Z,19.85
2023-01-25T14:57:27.978Z,20.30
2023-01-25T14:59:56.009Z,19.65
2023-01-25T15:02:25.993Z,19.55
2023-01-25T15:05:11.029Z,17.95
2023-01-25T15:07:45.716Z,16.40
2023-01-25T15:10:18.664Z,18.30
2023-01-25T15:13:20.082Z,18.65
2023-01-25T15:15:58.837Z,18.33
2023-01-25T15:18:45.622Z,20.67
2023-01-25T15:21:12.689Z,17.63
2023-01-25T15:23:42.115Z,25.27
2023-01-25T15:26:22.341Z,19.48
2023-01-25T15:31:22.901Z,22.10
2023-01-25T15:33:50.736Z,18.52
2023-01-25T15:36:19.701Z,17.73
2023-01-25T15:38:46.816Z,19.35
2023-01-25T15:41:14.416Z,19.55
2023-01-25T15:43:41.788Z,17.50
2023-01-25T15:46:23.199Z,21.90
2023-01-25T15:48:52.929Z,21.13
2023-01-25T15:51:20.916Z,17.70
2023-01-25T15:53:47.920Z,19.33
2023-01-25T15:56:35.945Z,19.13
2023-01-25T15:59:10.365Z,18.17
2023-01-25T16:01:37.261Z,21.00
2023-01-25T16:04:04.301Z,18.90
2023-01-25T16:06:43.045Z,21.75
2023-01-25T16:09:18.549Z,20.30
2023-01-25T16:12:00.204Z,17.25
2023-01-25T16:14:31.787Z,21.00
2023-01-25T16:17:02.915Z,19.65
2023-01-25T16:19:30.539Z,19.15
2023-01-25T16:21:57.339Z,19.08
2023-01-25T16:24:24.446Z,20.45
2023-01-25T16:26:54.384Z,20.55
2023-01-25T16:29:25.290Z,21.60
2023-01-25T16:31:52.904Z,32.00
2023-01-25T16:34:22.694Z,26.33
2023-01-25T16:36:50.777Z,25.73
2023-01-25T16:39:27.081Z,22.75
2023-01-25T16:41:55.411Z,21.75
2023-01-25T16:44:22.782Z,22.75
2023-01-25T16:46:50.361Z,18.83
2023-01-25T16:49:26.706Z,23.55
2023-01-25T16:51:55.533Z,21.40
2023-01-25T16:54:23.595Z,25.08
2023-01-25T16:56:51.419Z,25.27
2023-01-25T16:59:19.369Z,23.85
2023-01-25T17:01:46.756Z,25.23
2023-01-25T17:04:14.605Z,21.40
2023-01-25T17:06:45.000Z,21.05
2023-01-25T17:09:24.095Z,19.50
2023-01-25T17:11:52.465Z,20.50
2023-01-25T17:14:20.230Z,19.75
2023-01-25T17:16:50.706Z,19.30
2023-01-25T17:19:18.016Z,26.38
2023-01-25T17:21:45.574Z,29.70
2023-01-25T17:24:17.660Z,32.65
2023-01-25T17:26:44.994Z,35.55
2023-01-25T17:29:13.599Z,30.77
2023-01-25T17:31:42.409Z,33.33
2023-01-25T17:34:12.121Z,29.23
2023-01-25T17:36:39.082Z,21.40
2023-01-25T17:39:08.279Z,19.27
2023-01-25T17:41:35.667Z,22.37
2023-01-25T17:44:02.658Z,23.60
2023-01-25T17:46:35.092Z,19.63
2023-01-25T17:49:03.586Z,24.95
2023-01-25T17:51:32.691Z,34.28
2023-01-25T17:54:00.316Z,34.97
2023-01-25T17:56:27.799Z,30.27
2023-01-25T17:58:55.143Z,23.42
2023-01-25T18:01:27.158Z,22.08
2023-01-25T18:03:55.074Z,23.55
2023-01-25T18:06:31.406Z,23.42
2023-01-25T18:09:00.718Z,25.40
2023-01-25T18:11:31.659Z,23.08
2023-01-25T18:14:04.815Z,22.98
2023-01-25T18:16:32.617Z,23.40
2023-01-25T18:19:01.209Z,23.67
2023-01-25T18:21:32.212Z,21.48
2023-01-25T18:24:07.143Z,24.75
2023-01-25T18:26:36.992Z,26.35
2023-01-25T18:29:10.183Z,24.27
2023-01-25T18:31:38.602Z,27.17
2023-01-25T18:34:05.657Z,33.42
2023-01-25T18:36:32.558Z,30.48
2023-01-25T18:39:01.063Z,31.02
2023-01-25T18:41:29.005Z,31.95
2023-01-25T18:43:56.859Z,26.02
2023-01-25T18:46:24.068Z,27.55
2023-01-25T18:48:51.244Z,29.67
2023-01-25T18:51:18.291Z,26.70
2023-01-25T18:53:47.630Z,30.92
2023-01-25T18:56:17.780Z,30.65
2023-01-25T18:58:45.314Z,26.50
2023-01-25T19:01:15.784Z,27.02
2023-01-25T19:03:45.557Z,25.90
2023-01-25T19:06:13.846Z,24.98
2023-01-25T19:08:42.613Z,28.23
2023-01-25T19:11:11.729Z,26.70
2023-01-25T19:13:40.135Z,27.63
2023-01-25T19:16:10.872Z,28.77
2023-01-25T19:18:44.549Z,28.73
2023-01-25T19:21:12.412Z,24.83
2023-01-25T19:23:40.347Z,27.60
2023-01-25T19:26:09.032Z,47.40
2023-01-25T19:28:35.965Z,41.40
2023-01-25T19:31:16.939Z,40.83
2023-01-25T19:33:44.646Z,35.13
2023-01-25T19:36:16.719Z,30.17
2023-01-25T19:38:44.115Z,28.05
2023-01-25T19:41:13.229Z,27.38
2023-01-25T19:43:42.030Z,23.92
2023-01-25T19:46:18.475Z,29.50
2023-01-25T19:48:49.849Z,26.83
2023-01-25T19:51:21.870Z,25.63
2023-01-25T19:54:00.666Z,27.42
2023-01-25T19:56:32.761Z,26.20
2023-01-25T19:59:00.658Z,25.27
2023-01-25T20:01:29.685Z,27.98
2023-01-25T20:03:58.331Z,31.05
2023-01-25T20:06:27.090Z,29.48
2023-01-25T20:08:54.449Z,27.25
2023-01-25T20:11:27.347Z,28.52
2023-01-25T20:14:00.545Z,31.30
2023-01-25T20:16:28.799Z,34.78
2023-01-25T20:18:56.613Z,32.15
2023-01-25T20:21:24.816Z,30.85
2023-01-25T20:24:00.554Z,27.55
2023-01-25T20:26:31.182Z,27.52
2023-01-25T20:28:59.373Z,29.15
2023-01-25T20:31:31.187Z,27.05
2023-01-25T20:34:05.607Z,26.70
2023-01-25T20:36:37.343Z,33.00
2023-01-25T20:39:05.761Z,32.78
2023-01-25T20:41:33.118Z,33.17
2023-01-25T20:44:08.767Z,30.23
2023-01-25T20:46:40.554Z,34.53
2023-01-25T20:49:18.456Z,32.78
2023-01-25T20:51:45.959Z,26.27
2023-01-25T20:54:12.892Z,29.45
2023-01-25T20:56:40.230Z,23.23
2023-01-25T20:59:07.255Z,24.83
2023-01-25T21:01:37.364Z,29.50
2023-01-25T21:04:06.206Z,33.45
2023-01-25T21:06:35.131Z,29.05
2023-01-25T21:09:02.515Z,26.25
2023-01-25T21:11:29.473Z,30.02
2023-01-25T21:13:57.046Z,30.10
2023-01-25T21:16:24.491Z,28.52
2023-01-25T21:18:54.687Z,30.00
2023-01-25T21:23:50.468Z,37.70
2023-01-25T21:26:25.698Z,38.33
2023-01-25T21:28:54.816Z,35.22
2023-01-25T21:31:33.299Z,37.47
2023-01-25T21:34:00.661Z,31.90
2023-01-25T21:36:27.914Z,27.90
2023-01-25T21:38:55.657Z,27.15
2023-01-25T21:41:29.297Z,27.38
2023-01-25T21:44:17.144Z,30.38
2023-01-25T21:47:04.204Z,25.65
2023-01-25T21:49:50.886Z,24.90
2023-01-25T21:52:17.720Z,24.67
2023-01-25T21:54:44.624Z,27.50
2023-01-25T21:57:11.692Z,26.73
2023-01-25T21:59:40.839Z,31.25
2023-01-25T22:02:14.599Z,32.92
2023-01-25T22:04:43.529Z,26.83
2023-01-25T22:07:12.271Z,30.20
2023-01-25T22:09:40.451Z,29.83
2023-01-25T22:13:13.205Z,28.75
2023-01-25T22:15:44.071Z,29.80
2023-01-25T22:18:12.608Z,31.05
2023-01-25T22:20:40.585Z,28.65
2023-01-25T22:23:08.764Z,31.02
2023-01-25T22:25:36.882Z,29.08
2023-01-25T22:28:07.897Z,29.00
